createdAt,value
2018-02-06T00:00:33.188Z,-4.40
2018-02-06T00:03:00.725Z,-4.40
2018-02-06T00:05:28.285Z,-4.50
2018-02-06T00:07:55.826Z,-4.50
2018-02-06T00:10:24.152Z,-4.50
2018-02-06T00:12:51.687Z,-4.60
2018-02-06T00:15:19.208Z,-4.60
2018-02-06T00:17:46.761Z,-4.60
2018-02-06T00:20:14.293Z,-4.70
2018-02-06T00:22:49.770Z,-4.70
2018-02-06T00:25:17.267Z,-4.70
2018-02-06T00:27:44.852Z,-4.70
2018-02-06T00:30:12.376Z,-4.70
2018-02-06T00:32:39.924Z,-4.70
2018-02-06T00:35:07.457Z,-4.70
2018-02-06T00:37:35.004Z,-4.70
2018-02-06T00:40:02.546Z,-4.70
2018-02-06T00:42:30.098Z,-4.70
2018-02-06T00:44:57.620Z,-4.60
2018-02-06T00:47:25.168Z,-4.60
2018-02-06T00:49:53.464Z,-4.60
2018-02-06T00:52:21.014Z,-4.60
2018-02-06T00:54:48.545Z,-4.60
2018-02-06T00:57:16.105Z,-4.60
2018-02-06T00:59:43.634Z,-4.60
2018-02-06T01:02:11.185Z,-4.60
2018-02-06T01:04:38.713Z,-4.60
2018-02-06T01:07:06.273Z,-4.60
2018-02-06T01:09:33.798Z,-4.60
2018-02-06T01:12:01.329Z,-4.60
2018-02-06T01:14:28.886Z,-4.50
2018-02-06T01:16:56.436Z,-4.50
2018-02-06T01:19:23.988Z,-4.60
2018-02-06T01:21:51.530Z,-4.60
2018-02-06T01:24:19.076Z,-4.60
2018-02-06T01:26:46.611Z,-4.60
2018-02-06T01:29:14.928Z,-4.50
2018-02-06T01:31:43.220Z,-4.50
2018-02-06T01:34:10.768Z,-4.50
2018-02-06T01:36:38.325Z,-4.50
2018-02-06T01:39:05.869Z,-4.60
2018-02-06T01:41:33.393Z,-4.60
2018-02-06T01:44:01.708Z,-4.70
2018-02-06T01:46:29.246Z,-4.70
2018-02-06T01:48:56.799Z,-4.70
2018-02-06T01:51:25.098Z,-4.80
2018-02-06T01:53:52.661Z,-4.80
2018-02-06T01:56:20.201Z,-4.80
2018-02-06T01:58:47.748Z,-4.80
2018-02-06T02:01:16.992Z,-4.80
2018-02-06T02:03:44.541Z,-4.80
2018-02-06T02:06:12.069Z,-4.80
2018-02-06T02:08:39.629Z,-4.80
2018-02-06T02:11:07.164Z,-4.80
2018-02-06T02:13:34.717Z,-4.80
2018-02-06T02:16:02.244Z,-4.80
2018-02-06T02:18:29.784Z,-4.90
2018-02-06T02:20:57.345Z,-4.90
2018-02-06T02:23:24.872Z,-4.90
2018-02-06T02:25:53.193Z,-5.00
2018-02-06T02:28:20.721Z,-5.00
2018-02-06T02:30:48.273Z,-5.00
2018-02-06T02:33:15.805Z,-5.00
2018-02-06T02:35:43.355Z,-5.00
2018-02-06T02:38:10.888Z,-5.10
2018-02-06T02:40:38.436Z,-5.10
2018-02-06T04:38:45.605Z,-5.50
2018-02-06T04:41:13.152Z,-5.50
2018-02-06T04:43:40.680Z,-5.60
2018-02-06T04:46:08.244Z,-5.60
2018-02-06T04:48:35.776Z,-5.60
2018-02-06T04:51:03.340Z,-5.60
2018-02-06T04:53:30.885Z,-5.60
2018-02-06T04:55:58.408Z,-5.70
2018-02-06T04:58:25.952Z,-5.70
2018-02-06T05:00:53.476Z,-5.70
2018-02-06T05:03:21.021Z,-5.70
2018-02-06T05:05:48.566Z,-5.70
2018-02-06T05:08:16.881Z,-5.70
2018-02-06T05:10:44.417Z,-5.70
2018-02-06T05:13:11.986Z,-5.70
2018-02-06T05:15:39.512Z,-5.70
2018-02-06T05:18:07.832Z,-5.70
2018-02-06T05:20:35.429Z,-5.80
2018-02-06T05:23:02.980Z,-5.80
2018-02-06T05:25:30.509Z,-5.80
2018-02-06T05:27:58.056Z,-5.90
2018-02-06T05:30:25.596Z,-5.90
2018-02-06T05:32:53.151Z,-5.90
2018-02-06T05:35:20.741Z,-5.90
2018-02-06T05:37:48.293Z,-6.00
2018-02-06T05:40:15.816Z,-6.10
2018-02-06T05:42:44.129Z,-6.20
2018-02-06T05:45:11.661Z,-6.20
2018-02-06T05:47:39.212Z,-6.10
2018-02-06T05:50:07.505Z,-6.10
2018-02-06T05:52:35.050Z,-6.10
2018-02-06T05:55:02.608Z,-6.10
2018-02-06T05:57:30.137Z,-6.10
2018-02-06T05:59:57.687Z,-6.10
2018-02-06T06:02:25.213Z,-6.10
2018-02-06T06:04:52.764Z,-6.10
2018-02-06T06:07:20.291Z,-6.10
2018-02-06T06:09:48.602Z,-6.20
2018-02-06T06:12:16.965Z,-6.20
2018-02-06T06:14:44.523Z,-6.20
2018-02-06T06:17:12.044Z,-6.30
2018-02-06T06:19:39.607Z,-6.30
2018-02-06T06:22:07.136Z,-6.30
2018-02-06T06:24:34.696Z,-6.30
2018-02-06T06:27:02.226Z,-6.30
2018-02-06T06:29:29.781Z,-6.30
2018-02-06T06:31:57.320Z,-6.30
2018-02-06T06:34:24.879Z,-6.30
2018-02-06T06:36:52.413Z,-6.20
2018-02-06T06:39:20.001Z,-6.20
2018-02-06T06:41:47.549Z,-6.20
2018-02-06T06:44:15.841Z,-6.10
2018-02-06T06:46:43.424Z,-6.10
2018-02-06T06:49:10.958Z,-6.00
2018-02-06T06:51:38.514Z,-6.00
2018-02-06T06:54:06.040Z,-5.90
2018-02-06T06:56:33.594Z,-5.80
2018-02-06T06:59:01.289Z,-5.70
2018-02-06T07:01:28.873Z,-5.70
2018-02-06T07:03:56.401Z,-5.70
2018-02-06T07:06:23.970Z,-5.60
2018-02-06T07:08:51.496Z,-5.60
2018-02-06T07:11:19.821Z,-5.50
2018-02-06T07:13:47.353Z,-5.50
2018-02-06T07:16:14.909Z,-5.50
2018-02-06T07:18:42.496Z,-5.40
2018-02-06T07:21:10.029Z,-5.40
2018-02-06T07:23:37.565Z,-5.30
2018-02-06T07:26:05.905Z,-5.20
2018-02-06T07:28:33.432Z,-5.20
2018-02-06T07:31:00.967Z,-5.10
2018-02-06T07:33:29.297Z,-5.00
2018-02-06T07:35:56.825Z,-5.00
2018-02-06T07:38:24.380Z,-4.90
2018-02-06T07:40:51.906Z,-4.80
2018-02-06T07:43:19.457Z,-4.80
2018-02-06T07:45:46.988Z,-4.70
2018-02-06T07:48:14.533Z,-4.60
2018-02-06T07:50:42.069Z,-4.50
2018-02-06T07:53:09.621Z,-4.40
2018-02-06T07:55:37.152Z,-4.30
2018-02-06T07:58:04.708Z,-4.20
2018-02-06T08:00:32.236Z,-4.10
2018-02-06T08:02:59.796Z,-3.90
2018-02-06T08:05:27.326Z,-3.90
2018-02-06T08:07:54.885Z,-3.80
2018-02-06T08:10:22.420Z,-3.70
2018-02-06T08:12:50.762Z,-3.60
2018-02-06T08:15:18.289Z,-3.60
2018-02-06T08:17:45.821Z,-3.50
2018-02-06T08:20:14.133Z,-3.40
2018-02-06T08:22:41.672Z,-3.40
2018-02-06T08:25:09.236Z,-3.30
2018-02-06T08:27:36.782Z,-3.20
2018-02-06T08:30:04.355Z,-3.00
2018-02-06T08:32:31.886Z,-2.90
2018-02-06T08:35:00.224Z,-2.70
2018-02-06T08:37:27.757Z,-2.70
2018-02-06T08:39:55.311Z,-2.50
2018-02-06T08:42:22.869Z,-2.30
2018-02-06T08:44:50.416Z,-2.10
2018-02-06T08:47:17.955Z,-1.90
2018-02-06T08:49:46.280Z,-1.20
2018-02-06T08:52:13.837Z,-1.20
2018-02-06T08:54:41.405Z,-0.80
2018-02-06T08:57:08.933Z,-0.30
2018-02-06T08:59:36.473Z,0.10
2018-02-06T09:02:04.029Z,0.40
2018-02-06T09:04:32.328Z,0.80
2018-02-06T09:06:59.885Z,0.80
2018-02-06T09:09:27.409Z,1.20
2018-02-06T09:11:55.737Z,1.50
2018-02-06T09:14:23.260Z,1.40
2018-02-06T09:16:50.809Z,1.70
2018-02-06T09:19:19.098Z,3.00
2018-02-06T09:21:46.645Z,2.90
2018-02-06T09:24:14.933Z,3.90
2018-02-06T09:26:42.472Z,3.90
2018-02-06T09:29:10.761Z,4.50
2018-02-06T09:31:39.069Z,5.10
2018-02-06T09:34:06.599Z,5.10
2018-02-06T09:36:34.149Z,4.90
2018-02-06T09:39:02.438Z,6.20
2018-02-06T09:41:29.985Z,6.20
2018-02-06T09:43:58.277Z,6.80
2018-02-06T09:46:25.825Z,6.80
2018-02-06T09:48:53.372Z,6.70
2018-02-06T09:51:21.658Z,7.20
2018-02-06T09:53:49.202Z,7.20
2018-02-06T09:56:17.497Z,8.20
2018-02-06T09:58:45.050Z,8.20
2018-02-06T10:01:12.577Z,9.10
2018-02-06T10:03:40.121Z,8.90
2018-02-06T10:06:07.649Z,9.10
2018-02-06T10:08:35.193Z,9.00
2018-02-06T10:11:02.725Z,9.60
2018-02-06T10:13:31.040Z,9.70
2018-02-06T10:15:58.565Z,9.60
2018-02-06T10:18:26.878Z,8.40
2018-02-06T10:20:54.405Z,8.30
2018-02-06T10:23:22.716Z,6.60
2018-02-06T10:25:50.266Z,6.60
2018-02-06T10:28:17.827Z,6.00
2018-02-06T10:30:45.372Z,5.00
2018-02-06T10:33:12.901Z,4.90
2018-02-06T10:35:41.221Z,6.80
2018-02-06T10:38:08.753Z,6.80
2018-02-06T10:40:37.065Z,8.60
2018-02-06T10:43:04.601Z,8.60
2018-02-06T10:45:32.149Z,7.90
2018-02-06T10:47:59.684Z,8.80
2018-02-06T10:50:27.998Z,9.00
2018-02-06T10:52:55.541Z,8.90
2018-02-06T10:55:23.100Z,9.50
2018-02-06T10:57:50.633Z,9.60
2018-02-06T11:00:18.961Z,10.90
2018-02-06T11:02:46.503Z,10.90
2018-02-06T11:05:14.061Z,10.70
2018-02-06T11:07:41.593Z,11.90
2018-02-06T11:10:09.144Z,11.80
2018-02-06T11:12:37.457Z,11.20
2018-02-06T11:15:05.012Z,11.20
2018-02-06T11:17:32.544Z,11.30
2018-02-06T11:20:00.879Z,11.80
2018-02-06T11:22:28.418Z,11.80
2018-02-06T11:24:55.949Z,12.30
2018-02-06T11:27:24.269Z,11.40
2018-02-06T11:29:51.798Z,11.40
2018-02-06T11:32:19.357Z,11.60
2018-02-06T11:34:46.891Z,11.00
2018-02-06T11:37:15.209Z,10.60
2018-02-06T11:39:42.741Z,10.60
2018-02-06T11:42:10.292Z,10.40
2018-02-06T11:44:38.588Z,9.40
2018-02-06T11:47:06.132Z,9.40
2018-02-06T11:49:33.664Z,9.30
2018-02-06T11:52:01.254Z,9.80
2018-02-06T11:54:28.782Z,10.40
2018-02-06T11:56:56.309Z,9.70
2018-02-06T11:59:23.853Z,9.10
2018-02-06T12:01:51.609Z,8.50
2018-02-06T12:04:19.171Z,7.60
2018-02-06T12:06:46.697Z,7.50
2018-02-06T12:09:15.014Z,6.50
2018-02-06T12:11:42.539Z,6.50
2018-02-06T12:14:10.088Z,6.20
2018-02-06T12:16:38.384Z,6.40
2018-02-06T12:19:05.925Z,6.30
2018-02-06T12:21:34.216Z,6.90
2018-02-06T12:24:01.782Z,6.80
2018-02-06T12:26:29.318Z,6.70
2018-02-06T12:28:57.629Z,7.50
2018-02-06T12:31:25.169Z,7.50
2018-02-06T12:33:52.721Z,7.80
2018-02-06T12:36:20.248Z,8.30
2018-02-06T12:38:47.788Z,8.30
2018-02-06T12:41:15.320Z,8.70
2018-02-06T12:43:42.855Z,7.90
2018-02-06T12:46:10.401Z,7.80
2018-02-06T12:48:38.697Z,8.00
2018-02-06T12:51:06.252Z,8.00
2018-02-06T12:53:33.811Z,8.50
2018-02-06T12:56:01.356Z,9.20
2018-02-06T12:58:29.649Z,10.20
2018-02-06T13:00:57.200Z,10.20
2018-02-06T13:03:24.730Z,11.00
2018-02-06T13:05:53.049Z,11.10
2018-02-06T13:08:20.580Z,11.10
2018-02-06T13:10:48.905Z,10.60
2018-02-06T13:13:16.441Z,10.60
2018-02-06T13:15:43.993Z,10.10
2018-02-06T13:18:11.548Z,9.80
2018-02-06T13:20:39.136Z,9.60
2018-02-06T13:23:06.662Z,9.70
2018-02-06T13:25:34.193Z,9.40
2018-02-06T13:28:02.514Z,6.70
2018-02-06T13:30:30.043Z,6.70
2018-02-06T13:32:58.366Z,6.30
2018-02-06T13:35:25.896Z,6.30
2018-02-06T13:37:53.441Z,7.30
2018-02-06T13:40:21.724Z,8.80
2018-02-06T13:42:49.274Z,8.80
2018-02-06T13:45:17.566Z,9.90
2018-02-06T13:47:45.115Z,9.90
2018-02-06T13:50:12.654Z,10.20
2018-02-06T13:52:40.968Z,10.50
2018-02-06T13:55:08.497Z,10.50
2018-02-06T13:57:47.392Z,10.20
2018-02-06T14:00:14.931Z,10.10
2018-02-06T14:02:42.477Z,10.00
2018-02-06T14:05:10.012Z,10.10
2018-02-06T14:07:37.608Z,10.30
2018-02-06T14:10:05.132Z,9.30
2018-02-06T14:12:32.680Z,8.40
2018-02-06T14:15:00.201Z,7.30
2018-02-06T14:17:27.740Z,6.50
2018-02-06T14:19:55.276Z,5.80
2018-02-06T14:22:22.802Z,5.40
2018-02-06T14:24:51.114Z,4.90
2018-02-06T14:27:18.648Z,4.90
2018-02-06T14:29:46.193Z,4.30
2018-02-06T14:32:14.486Z,4.10
2018-02-06T14:34:42.028Z,4.00
2018-02-06T14:37:10.320Z,5.10
2018-02-06T14:39:37.869Z,5.10
2018-02-06T14:42:06.161Z,6.00
2018-02-06T14:44:33.712Z,5.90
2018-02-06T14:47:01.245Z,5.60
2018-02-06T14:49:28.795Z,4.80
2018-02-06T14:51:56.331Z,4.30
2018-02-06T14:54:23.872Z,4.10
2018-02-06T14:56:51.409Z,3.90
2018-02-06T14:59:18.961Z,4.10
2018-02-06T15:01:46.480Z,4.60
2018-02-06T15:04:14.013Z,4.70
2018-02-06T15:06:41.611Z,4.90
2018-02-06T15:09:09.909Z,5.30
2018-02-06T15:11:37.467Z,5.30
2018-02-06T15:14:04.996Z,5.60
2018-02-06T15:16:32.541Z,6.10
2018-02-06T15:19:00.064Z,6.20
2018-02-06T15:21:27.608Z,6.00
2018-02-06T15:23:55.133Z,5.90
2018-02-06T15:26:22.676Z,5.90
2018-02-06T15:28:50.204Z,5.70
2018-02-06T15:31:17.752Z,5.70
2018-02-06T15:33:45.320Z,5.60
2018-02-06T15:36:12.861Z,5.20
2018-02-06T15:38:40.397Z,5.30
2018-02-06T15:41:08.714Z,5.20
2018-02-06T15:43:36.233Z,5.20
2018-02-06T15:46:04.569Z,4.40
2018-02-06T15:48:32.092Z,4.30
2018-02-06T15:50:59.644Z,4.00
2018-02-06T15:53:27.180Z,3.50
2018-02-06T15:55:55.504Z,2.70
2018-02-06T15:58:23.036Z,2.70
2018-02-06T16:03:54.028Z,1.90
2018-02-06T16:06:21.572Z,1.60
2018-02-06T16:08:49.101Z,1.40
2018-02-06T16:11:16.649Z,1.20
2018-02-06T16:13:44.948Z,0.80
2018-02-06T16:16:12.470Z,0.80
2018-02-06T16:18:40.009Z,0.60
2018-02-06T16:21:07.534Z,0.40
2018-02-06T16:23:35.072Z,0.30
2018-02-06T16:26:02.651Z,0.10
2018-02-06T16:28:30.940Z,-0.10
2018-02-06T16:30:58.492Z,-0.20
2018-02-06T16:33:26.034Z,-0.30
2018-02-06T16:35:53.565Z,-0.40
2018-02-06T16:38:22.682Z,-0.50
2018-02-06T16:40:55.409Z,-0.50
2018-02-06T16:43:23.797Z,-0.60
2018-02-06T16:45:51.335Z,-0.70
2018-02-06T16:48:18.917Z,-0.80
2018-02-06T16:50:46.483Z,-0.80
2018-02-06T16:53:14.016Z,-0.90
2018-02-06T16:55:41.601Z,-1.00
2018-02-06T16:58:09.160Z,-1.00
2018-02-06T17:00:36.685Z,-1.10
2018-02-06T17:03:06.720Z,-1.10
2018-02-06T17:05:34.252Z,-1.10
2018-02-06T17:08:01.773Z,-1.20
2018-02-06T17:10:30.094Z,-1.30
2018-02-06T17:12:57.622Z,-1.30
2018-02-06T17:15:25.182Z,-1.30
2018-02-06T17:17:52.709Z,-1.30
2018-02-06T17:20:21.023Z,-1.40
2018-02-06T17:22:48.553Z,-1.40
2018-02-06T17:25:16.870Z,-1.50
2018-02-06T17:27:44.387Z,-1.50
2018-02-06T17:30:12.697Z,-1.60
2018-02-06T17:32:42.529Z,-1.60
2018-02-06T17:35:10.084Z,-1.70
2018-02-06T17:37:37.609Z,-1.70
2018-02-06T17:40:05.169Z,-1.80
2018-02-06T17:42:32.692Z,-1.80
2018-02-06T17:45:02.281Z,-1.90
2018-02-06T17:47:29.852Z,-1.90
2018-02-06T17:49:57.398Z,-2.00
2018-02-06T17:52:24.921Z,-2.10
2018-02-06T17:54:52.479Z,-2.10
2018-02-06T17:57:20.013Z,-2.10
2018-02-06T17:59:48.336Z,-2.20
2018-02-06T18:02:15.856Z,-2.30
2018-02-06T18:04:43.385Z,-2.30
2018-02-06T18:07:10.947Z,-2.30
2018-02-06T18:09:38.473Z,-2.30
2018-02-06T18:12:06.031Z,-2.30
2018-02-06T18:14:33.621Z,-2.30
2018-02-06T18:17:01.170Z,-2.40
2018-02-06T18:19:28.693Z,-2.40
2018-02-06T18:21:56.250Z,-2.40
2018-02-06T18:24:23.786Z,-2.40
2018-02-06T18:26:51.334Z,-2.30
2018-02-06T18:29:19.625Z,-2.30
2018-02-06T18:31:47.172Z,-2.30
2018-02-06T18:34:14.706Z,-2.30
2018-02-06T18:36:43.027Z,-2.30
2018-02-06T18:39:10.563Z,-2.40
2018-02-06T18:41:38.093Z,-2.40
2018-02-06T18:44:05.692Z,-2.40
2018-02-06T18:46:33.220Z,-2.40
2018-02-06T18:49:01.536Z,-2.50
2018-02-06T18:51:30.105Z,-2.60
2018-02-06T18:53:57.690Z,-2.50
2018-02-06T18:56:25.234Z,-2.50
2018-02-06T18:58:52.785Z,-2.50
2018-02-06T19:01:20.317Z,-2.50
2018-02-06T19:03:48.636Z,-2.50
2018-02-06T19:06:16.177Z,-2.50
2018-02-06T19:08:43.789Z,-2.50
2018-02-06T19:11:11.317Z,-2.50
2018-02-06T19:13:38.864Z,-2.50
2018-02-06T19:16:06.448Z,-2.50
2018-02-06T19:18:34.004Z,-2.50
2018-02-06T19:21:01.533Z,-2.50
2018-02-06T19:23:29.126Z,-2.50
2018-02-06T19:25:56.669Z,-2.60
2018-02-06T19:28:24.312Z,-2.50
2018-02-06T19:30:51.940Z,-2.50
2018-02-06T19:33:20.255Z,-2.50
2018-02-06T19:35:47.781Z,-2.60
2018-02-06T19:38:16.101Z,-2.60
2018-02-06T19:40:43.628Z,-2.60
2018-02-06T19:43:11.182Z,-2.70
2018-02-06T19:45:39.537Z,-2.70
2018-02-06T19:48:07.092Z,-2.70
2018-02-06T19:50:35.398Z,-2.80
2018-02-06T19:53:02.995Z,-2.80
2018-02-06T19:55:30.516Z,-2.80
2018-02-06T19:57:58.037Z,-2.80
2018-02-06T20:00:25.629Z,-2.80
2018-02-06T20:02:53.212Z,-2.80
2018-02-06T20:05:20.765Z,-2.80
2018-02-06T20:07:48.290Z,-2.90
2018-02-06T20:10:16.668Z,-3.00
2018-02-06T20:12:45.038Z,-3.00
2018-02-06T20:15:12.641Z,-3.00
2018-02-06T20:17:40.224Z,-3.00
2018-02-06T20:20:07.775Z,-3.10
2018-02-06T20:22:35.309Z,-3.10
2018-02-06T20:25:02.961Z,-3.10
2018-02-06T20:27:30.488Z,-3.10
2018-02-06T20:29:58.085Z,-3.10
2018-02-06T20:32:25.635Z,-3.00
2018-02-06T20:34:53.162Z,-3.00
2018-02-06T20:37:20.712Z,-3.00
2018-02-06T20:39:48.242Z,-3.10
2018-02-06T20:42:16.616Z,-3.10
2018-02-06T20:44:44.197Z,-3.10
2018-02-06T20:47:11.769Z,-3.10
2018-02-06T20:49:39.289Z,-3.10
2018-02-06T20:52:06.845Z,-3.20
2018-02-06T20:54:34.374Z,-3.20
2018-02-06T20:57:02.693Z,-3.20
2018-02-06T20:59:50.022Z,-3.20
2018-02-06T21:02:17.619Z,-3.20
2018-02-06T21:04:45.921Z,-3.20
2018-02-06T21:07:13.469Z,-3.20
2018-02-06T21:09:41.803Z,-3.20
2018-02-06T21:12:12.005Z,-3.20
2018-02-06T21:14:39.594Z,-3.20
2018-02-06T21:17:08.120Z,-3.20
2018-02-06T21:19:37.462Z,-3.20
2018-02-06T21:22:05.068Z,-3.20
2018-02-06T21:24:33.384Z,-3.30
2018-02-06T21:27:00.916Z,-3.30
2018-02-06T21:29:28.515Z,-3.30
2018-02-06T21:31:56.049Z,-3.40
2018-02-06T21:34:23.596Z,-3.30
2018-02-06T21:36:51.129Z,-3.40
2018-02-06T21:39:19.514Z,-3.40
2018-02-06T21:41:47.834Z,-3.50
2018-02-06T21:44:15.385Z,-3.50
2018-02-06T21:46:42.924Z,-3.50
2018-02-06T21:49:10.477Z,-3.50
2018-02-06T21:51:38.008Z,-3.50
2018-02-06T21:54:06.324Z,-3.50
2018-02-06T21:56:33.917Z,-3.60
2018-02-06T21:59:01.551Z,-3.60
2018-02-06T22:01:29.129Z,-3.60
2018-02-06T22:04:01.010Z,-3.60
2018-02-06T22:06:32.280Z,-3.60
2018-02-06T22:09:00.829Z,-3.60
2018-02-06T22:11:29.148Z,-3.30
2018-02-06T22:13:57.940Z,-3.70
2018-02-06T22:16:26.908Z,-3.60
2018-02-06T22:18:54.459Z,-3.70
2018-02-06T22:21:22.065Z,-3.70
2018-02-06T22:23:49.622Z,-3.70
2018-02-06T22:26:18.413Z,-3.70
2018-02-06T22:28:45.941Z,-3.70
2018-02-06T22:31:14.828Z,-3.70
2018-02-06T22:33:50.054Z,-3.70
2018-02-06T22:36:18.380Z,-3.70
2018-02-06T22:38:45.909Z,-3.70
2018-02-06T22:41:16.157Z,-3.70
2018-02-06T22:43:43.836Z,-3.70
2018-02-06T22:46:11.388Z,-3.70
2018-02-06T22:51:12.124Z,-3.70
2018-02-06T22:53:39.650Z,-3.80
2018-02-06T22:56:07.957Z,-3.80
2018-02-06T22:58:35.480Z,-3.80
2018-02-06T23:01:03.793Z,-3.90
2018-02-06T23:03:31.318Z,-3.90
2018-02-06T23:05:59.628Z,-3.90
2018-02-06T23:08:27.166Z,-3.90
2018-02-06T23:10:54.721Z,-3.90
2018-02-06T23:13:23.217Z,-3.90
2018-02-06T23:15:50.772Z,-4.00
2018-02-06T23:18:20.839Z,-4.00
2018-02-06T23:20:48.465Z,-4.00
2018-02-06T23:23:16.120Z,-4.00
2018-02-06T23:25:43.679Z,-4.00
2018-02-06T23:28:11.394Z,-4.00
2018-02-06T23:30:40.634Z,-4.00
2018-02-06T23:33:08.180Z,-4.00
2018-02-06T23:35:35.706Z,-4.10
2018-02-06T23:38:03.253Z,-4.10
2018-02-06T23:40:30.783Z,-4.10
2018-02-06T23:42:58.332Z,-4.20
2018-02-06T23:45:25.857Z,-4.20
2018-02-06T23:47:54.170Z,-4.30
2018-02-06T23:50:22.470Z,-4.20
2018-02-06T23:52:50.026Z,-4.30
2018-02-06T23:55:17.558Z,-4.30
2018-02-06T23:57:45.104Z,-4.30
